< < Back
Terminal Aerodrome Forecast


Current Version              Previous Versions:   1  2  3  4  5  6  7  8  9  

Terminal Aerodrome Forecast

777
FTUS42 KTAE 291731
TAFDHN
TAF
KDHN 291731Z 2918/3018 36005KT P6SM SCT040
     FM291900 30008KT P6SM VCTS BKN040CB
      TEMPO 2920/2924 VRB10G20KT 5SM -TSRA
     FM300100 20005KT P6SM SCT050=



Latest METAR

210
SAUS70 KWBC 292000 RRN
MTRDHN
METAR KDHN 291953Z 34006KT 10SM CLR 32/22 A2996 RMK AO2 SLP139
T03170222


USA.gov is the U.S. government's official web portal to all federal, state and local government web resources and services.